Terminal Aerodrome Forecast
Issued by NWS Mt. Holly, NJ

Home | Current Version | Previous Version | Text Only | Print | Product List | Glossary On
Versions: 1 2 3 4 5 6 7 8 9 10 11 12 13 14 15 16
009
FTUS41 KPHI 271123
TAFILG
TAF
KILG 271123Z 2712/2812 30006KT P6SM BKN050
     FM271600 24006KT P6SM BKN250
     FM271900 19005KT P6SM SKC
     FM272300 VRB03KT P6SM SKC=

USA.gov is the U.S. government's official web portal to all federal, state and local government web resources and services.